createdAt,value
2022-10-20T00:00:56.891Z,5.51
2022-10-20T00:03:25.372Z,5.07
2022-10-20T00:05:53.284Z,5.04
2022-10-20T00:08:22.637Z,5.38
2022-10-20T00:10:54.931Z,5.48
2022-10-20T00:13:23.172Z,5.45
2022-10-20T00:15:51.591Z,5.38
2022-10-20T00:18:19.949Z,4.74
2022-10-20T00:20:47.923Z,5.37
2022-10-20T00:23:15.933Z,5.33
2022-10-20T00:25:45.311Z,5.26
2022-10-20T00:28:13.652Z,5.25
2022-10-20T00:30:41.690Z,5.39
2022-10-20T00:33:09.815Z,5.42
2022-10-20T00:35:39.993Z,5.32
2022-10-20T00:38:07.866Z,5.62
2022-10-20T00:40:35.724Z,5.56
2022-10-20T00:43:05.053Z,5.29
2022-10-20T00:45:33.014Z,5.60
2022-10-20T00:48:05.872Z,5.70
2022-10-20T00:50:41.585Z,5.61
2022-10-20T00:53:09.680Z,5.28
2022-10-20T00:55:47.212Z,5.42
2022-10-20T00:58:15.636Z,5.49
2022-10-20T01:00:45.994Z,5.12
2022-10-20T01:03:16.345Z,5.20
2022-10-20T01:05:44.556Z,5.18
2022-10-20T01:08:12.519Z,5.18
2022-10-20T01:10:47.919Z,5.21
2022-10-20T01:13:26.983Z,4.92
2022-10-20T01:16:02.910Z,5.13
2022-10-20T01:18:38.173Z,5.05
2022-10-20T01:21:26.247Z,4.89
2022-10-20T01:24:06.599Z,4.92
2022-10-20T01:26:53.015Z,5.00
2022-10-20T01:29:28.633Z,4.97
2022-10-20T01:32:06.287Z,4.65
2022-10-20T01:34:40.069Z,4.73
2022-10-20T01:37:28.319Z,4.58
2022-10-20T01:40:11.647Z,4.41
2022-10-20T01:42:42.059Z,4.47
2022-10-20T01:45:13.694Z,4.65
2022-10-20T01:47:42.544Z,4.64
2022-10-20T01:50:13.217Z,4.80
2022-10-20T01:52:41.044Z,4.81
2022-10-20T01:55:14.223Z,4.74
2022-10-20T01:57:50.734Z,4.79
2022-10-20T02:00:20.487Z,4.72
2022-10-20T02:03:03.752Z,4.71
2022-10-20T02:05:47.302Z,4.62
2022-10-20T02:08:18.984Z,4.62
2022-10-20T02:10:49.150Z,4.50
2022-10-20T02:13:20.086Z,4.42
2022-10-20T02:15:53.641Z,4.43
2022-10-20T02:18:25.311Z,4.33
2022-10-20T02:20:56.405Z,4.38
2022-10-20T02:23:24.945Z,4.40
2022-10-20T02:25:55.628Z,4.52
2022-10-20T02:28:24.249Z,4.38
2022-10-20T02:30:53.852Z,4.73
2022-10-20T02:33:23.203Z,4.75
2022-10-20T02:35:56.320Z,4.56
2022-10-20T02:38:24.476Z,4.51
2022-10-20T02:40:52.350Z,4.57
2022-10-20T02:43:20.292Z,4.52
2022-10-20T02:45:48.240Z,4.52
2022-10-20T02:48:17.457Z,4.33
2022-10-20T02:50:45.435Z,4.43
2022-10-20T02:53:13.317Z,4.62
2022-10-20T02:55:42.337Z,4.64
2022-10-20T02:58:10.440Z,4.64
2022-10-20T03:00:38.756Z,4.62
2022-10-20T03:03:06.587Z,4.71
2022-10-20T03:05:40.297Z,4.73
2022-10-20T03:08:08.284Z,4.69
2022-10-20T03:10:37.508Z,4.77
2022-10-20T03:13:05.941Z,4.76
2022-10-20T03:15:34.027Z,4.56
2022-10-20T03:18:01.884Z,4.70
2022-10-20T03:20:29.787Z,4.80
2022-10-20T03:22:59.056Z,4.86
2022-10-20T03:25:27.193Z,4.59
2022-10-20T03:27:55.201Z,4.90
2022-10-20T03:30:23.264Z,4.84
2022-10-20T03:32:51.354Z,4.84
2022-10-20T03:35:19.141Z,4.70
2022-10-20T03:37:46.947Z,4.36
2022-10-20T03:40:16.351Z,4.82
2022-10-20T03:42:44.220Z,4.61
2022-10-20T03:45:14.952Z,4.40
2022-10-20T03:47:45.585Z,4.33
2022-10-20T03:50:13.559Z,4.51
2022-10-20T03:52:41.510Z,4.50
2022-10-20T03:55:10.323Z,4.41
2022-10-20T03:57:39.471Z,4.30
2022-10-20T04:00:08.776Z,4.18
2022-10-20T04:02:44.879Z,4.22
2022-10-20T04:05:15.078Z,4.13
2022-10-20T04:07:43.434Z,4.03
2022-10-20T04:10:12.817Z,4.17
2022-10-20T04:12:42.449Z,4.13
2022-10-20T04:15:11.307Z,4.03
2022-10-20T04:20:12.452Z,4.23
2022-10-20T04:22:40.568Z,4.33
2022-10-20T04:25:09.133Z,4.20
2022-10-20T04:27:37.632Z,4.28
2022-10-20T04:30:08.749Z,4.32
2022-10-20T04:32:36.789Z,4.18
2022-10-20T04:35:05.157Z,4.24
2022-10-20T04:37:33.275Z,3.85
2022-10-20T04:40:01.323Z,4.16
2022-10-20T04:42:29.232Z,4.21
2022-10-20T04:47:27.307Z,4.05
2022-10-20T04:49:55.176Z,4.24
2022-10-20T04:52:23.048Z,4.22
2022-10-20T04:54:51.047Z,3.70
2022-10-20T04:57:18.884Z,4.46
2022-10-20T04:59:47.487Z,4.55
2022-10-20T05:02:15.440Z,4.45
2022-10-20T05:04:44.655Z,4.30
2022-10-20T05:07:12.495Z,4.08
2022-10-20T05:09:40.335Z,4.42
2022-10-20T05:12:08.789Z,4.53
2022-10-20T05:14:36.658Z,4.48
2022-10-20T05:17:07.786Z,4.55
2022-10-20T05:19:37.957Z,4.67
2022-10-20T05:22:07.334Z,4.75
2022-10-20T05:24:35.368Z,4.88
2022-10-20T05:27:03.258Z,4.92
2022-10-20T05:29:31.328Z,4.96
2022-10-20T05:31:59.370Z,4.98
2022-10-20T05:34:27.255Z,5.13
2022-10-20T05:36:55.193Z,5.16
2022-10-20T05:39:24.640Z,4.94
2022-10-20T05:41:52.509Z,5.13
2022-10-20T05:44:20.372Z,5.14
2022-10-20T05:46:48.219Z,5.14
2022-10-20T05:49:17.681Z,5.42
2022-10-20T05:51:47.005Z,5.14
2022-10-20T05:54:16.252Z,5.35
2022-10-20T05:56:46.182Z,5.56
2022-10-20T05:59:14.684Z,5.13
2022-10-20T06:01:49.012Z,5.46
2022-10-20T06:04:18.242Z,5.35
2022-10-20T06:06:48.755Z,5.45
2022-10-20T06:09:17.124Z,5.37
2022-10-20T06:11:46.665Z,5.29
2022-10-20T06:14:14.952Z,5.23
2022-10-20T06:16:43.031Z,5.17
2022-10-20T06:19:11.412Z,5.01
2022-10-20T06:21:39.523Z,5.01
2022-10-20T06:24:08.640Z,4.51
2022-10-20T06:26:37.442Z,4.93
2022-10-20T06:29:08.564Z,5.03
2022-10-20T06:31:39.116Z,5.10
2022-10-20T06:34:08.798Z,5.07
2022-10-20T06:36:37.572Z,5.02
2022-10-20T06:39:07.777Z,4.92
2022-10-20T06:41:36.432Z,5.09
2022-10-20T06:44:07.237Z,5.15
2022-10-20T06:46:36.932Z,4.80
2022-10-20T06:49:06.861Z,5.36
2022-10-20T06:51:35.753Z,5.58
2022-10-20T06:54:04.011Z,5.66
2022-10-20T06:56:33.388Z,5.80
2022-10-20T06:59:02.088Z,5.93
2022-10-20T07:01:32.804Z,5.99
2022-10-20T07:04:02.065Z,6.14
2022-10-20T07:06:32.375Z,6.18
2022-10-20T07:09:00.409Z,6.30
2022-10-20T07:11:30.101Z,6.36
2022-10-20T07:14:00.080Z,6.42
2022-10-20T07:16:31.990Z,6.50
2022-10-20T07:19:00.708Z,6.58
2022-10-20T07:21:34.589Z,6.72
2022-10-20T07:24:07.175Z,6.73
2022-10-20T07:26:37.325Z,6.64
2022-10-20T07:29:05.485Z,6.75
2022-10-20T07:31:37.035Z,6.93
2022-10-20T07:34:23.418Z,7.15
2022-10-20T07:36:52.955Z,7.14
2022-10-20T07:39:20.731Z,7.25
2022-10-20T07:41:48.748Z,7.28
2022-10-20T07:44:17.598Z,7.48
2022-10-20T07:46:46.920Z,7.60
2022-10-20T07:52:02.683Z,7.68
2022-10-20T07:54:30.741Z,7.82
2022-10-20T07:56:58.621Z,7.94
2022-10-20T07:59:26.604Z,7.76
2022-10-20T08:01:56.243Z,8.11
2022-10-20T08:04:26.741Z,7.86
2022-10-20T08:06:54.623Z,8.60
2022-10-20T08:09:22.523Z,8.71
2022-10-20T08:11:54.621Z,8.92
2022-10-20T08:14:26.837Z,8.84
2022-10-20T08:16:57.802Z,8.81
2022-10-20T08:19:37.467Z,9.07
2022-10-20T08:22:05.307Z,8.52
2022-10-20T08:24:33.122Z,9.09
2022-10-20T08:27:01.766Z,9.29
2022-10-20T08:29:29.985Z,8.61
2022-10-20T08:31:59.319Z,9.04
2022-10-20T08:34:27.418Z,9.19
2022-10-20T08:36:55.285Z,9.35
2022-10-20T08:39:23.474Z,9.58
2022-10-20T08:42:08.166Z,9.57
2022-10-20T08:44:37.679Z,9.78
2022-10-20T08:47:17.425Z,10.02
2022-10-20T08:49:47.663Z,10.20
2022-10-20T08:52:15.966Z,10.29
2022-10-20T08:54:44.043Z,10.02
2022-10-20T08:57:23.479Z,10.38
2022-10-20T08:59:53.332Z,10.39
2022-10-20T09:02:23.620Z,9.92
2022-10-20T09:04:52.526Z,10.69
2022-10-20T09:07:27.127Z,10.53
2022-10-20T09:10:03.318Z,10.76
2022-10-20T09:12:32.659Z,10.92
2022-10-20T09:15:00.491Z,10.90
2022-10-20T09:17:29.993Z,10.89
2022-10-20T09:20:00.866Z,10.77
2022-10-20T09:22:35.523Z,10.93
2022-10-20T09:25:05.100Z,11.09
2022-10-20T09:27:37.054Z,11.02
2022-10-20T09:30:17.285Z,11.11
2022-10-20T09:32:55.567Z,11.46
2022-10-20T09:35:29.516Z,11.32
2022-10-20T09:38:04.943Z,11.45
2022-10-20T09:40:33.155Z,11.35
2022-10-20T09:43:03.390Z,11.35
2022-10-20T09:45:35.098Z,11.45
2022-10-20T09:48:08.969Z,11.53
2022-10-20T09:50:40.263Z,11.45
2022-10-20T09:53:19.241Z,11.73
2022-10-20T09:55:49.501Z,11.67
2022-10-20T09:58:24.082Z,11.51
2022-10-20T10:01:02.745Z,11.74
2022-10-20T10:03:41.117Z,11.70
2022-10-20T10:06:33.210Z,11.99
2022-10-20T10:09:03.110Z,12.19
2022-10-20T10:11:35.880Z,11.90
2022-10-20T10:14:04.840Z,12.10
2022-10-20T10:16:41.982Z,12.25
2022-10-20T10:19:19.068Z,12.49
2022-10-20T10:21:49.619Z,12.62
2022-10-20T10:24:37.871Z,12.44
2022-10-20T10:27:07.850Z,12.58
2022-10-20T10:29:37.248Z,12.82
2022-10-20T10:32:15.756Z,13.01
2022-10-20T10:35:01.877Z,13.09
2022-10-20T10:37:34.025Z,13.15
2022-10-20T10:40:06.136Z,13.15
2022-10-20T10:42:45.766Z,13.19
2022-10-20T10:45:20.830Z,13.18
2022-10-20T10:48:07.441Z,13.52
2022-10-20T10:50:44.251Z,13.56
2022-10-20T10:53:25.016Z,13.59
2022-10-20T10:56:01.168Z,13.73
2022-10-20T10:58:42.989Z,13.90
2022-10-20T11:01:26.072Z,13.83
2022-10-20T11:04:24.893Z,13.83
2022-10-20T11:07:00.769Z,13.47
2022-10-20T11:09:39.536Z,13.80
2022-10-20T11:12:38.825Z,13.74
2022-10-20T11:15:22.617Z,13.68
2022-10-20T11:18:00.357Z,14.06
2022-10-20T11:20:34.012Z,13.98
2022-10-20T11:23:25.571Z,13.89
2022-10-20T11:25:59.781Z,13.91
2022-10-20T11:28:33.876Z,13.99
2022-10-20T11:31:01.925Z,13.99
2022-10-20T11:33:41.546Z,14.03
2022-10-20T11:36:13.927Z,14.21
2022-10-20T11:38:47.510Z,14.27
2022-10-20T11:41:21.085Z,14.39
2022-10-20T11:43:54.426Z,14.37
2022-10-20T11:46:27.851Z,14.36
2022-10-20T11:49:00.234Z,14.40
2022-10-20T11:51:51.340Z,14.48
2022-10-20T11:54:42.632Z,14.44
2022-10-20T11:57:21.193Z,14.30
2022-10-20T12:00:03.388Z,14.23
2022-10-20T12:03:21.786Z,14.31
2022-10-20T12:06:10.148Z,14.19
2022-10-20T12:09:08.215Z,14.06
2022-10-20T12:11:43.679Z,13.88
2022-10-20T12:14:22.085Z,14.01
2022-10-20T12:17:07.367Z,14.06
2022-10-20T12:19:36.587Z,14.19
2022-10-20T12:22:07.766Z,14.30
2022-10-20T12:24:38.837Z,14.30
2022-10-20T12:27:21.742Z,14.37
2022-10-20T12:30:01.178Z,14.23
2022-10-20T12:32:39.703Z,14.64
2022-10-20T12:35:52.079Z,14.70
2022-10-20T12:38:20.474Z,14.82
2022-10-20T12:40:55.091Z,14.87
2022-10-20T12:43:31.383Z,14.59
2022-10-20T12:46:04.694Z,14.54
2022-10-20T12:48:35.513Z,14.09
2022-10-20T12:51:08.784Z,14.49
2022-10-20T12:53:37.326Z,14.38
2022-10-20T12:56:09.002Z,14.32
2022-10-20T12:58:39.479Z,14.52
2022-10-20T13:01:11.983Z,14.41
2022-10-20T13:03:44.023Z,14.38
2022-10-20T13:06:43.369Z,14.47
2022-10-20T13:09:22.842Z,14.58
2022-10-20T13:12:06.008Z,14.43
2022-10-20T13:14:51.237Z,14.24
2022-10-20T13:17:25.049Z,14.23
2022-10-20T13:20:01.206Z,14.10
2022-10-20T13:22:38.911Z,12.95
2022-10-20T13:25:15.670Z,14.19
2022-10-20T13:27:43.635Z,14.15
2022-10-20T13:30:22.481Z,14.24
2022-10-20T13:33:11.612Z,13.77
2022-10-20T13:35:57.693Z,14.21
2022-10-20T13:38:31.923Z,13.94
2022-10-20T13:41:05.762Z,14.16
2022-10-20T13:43:41.758Z,14.12
2022-10-20T13:46:44.830Z,14.09
2022-10-20T13:49:52.818Z,14.01
2022-10-20T13:52:22.525Z,13.86
2022-10-20T13:54:52.638Z,13.94
2022-10-20T13:57:28.939Z,13.83
2022-10-20T13:59:59.374Z,13.80
2022-10-20T14:02:31.295Z,13.81
2022-10-20T14:05:12.500Z,13.82
2022-10-20T14:07:42.532Z,13.72
2022-10-20T14:10:26.172Z,13.83
2022-10-20T14:12:56.188Z,13.92
2022-10-20T14:15:31.633Z,13.84
2022-10-20T14:18:04.683Z,13.96
2022-10-20T14:20:34.032Z,13.91
2022-10-20T14:23:03.398Z,13.92
2022-10-20T14:25:33.343Z,13.72
2022-10-20T14:28:05.293Z,13.75
2022-10-20T14:30:40.155Z,13.76
2022-10-20T14:33:16.235Z,13.70
2022-10-20T14:35:47.496Z,13.74
2022-10-20T14:38:19.635Z,13.40
2022-10-20T14:40:52.972Z,13.47
2022-10-20T14:43:25.177Z,13.72
2022-10-20T14:45:55.004Z,13.57
2022-10-20T14:48:26.339Z,13.65
2022-10-20T14:50:55.425Z,13.63
2022-10-20T14:53:33.155Z,13.68
2022-10-20T14:56:02.701Z,13.59
2022-10-20T14:58:39.662Z,13.61
2022-10-20T15:01:21.594Z,13.47
2022-10-20T15:04:05.334Z,13.49
2022-10-20T15:06:33.712Z,13.60
2022-10-20T15:09:01.807Z,13.65
2022-10-20T15:11:32.208Z,13.45
2022-10-20T15:14:01.092Z,13.50
2022-10-20T15:16:36.241Z,13.34
2022-10-20T15:19:28.066Z,13.50
2022-10-20T15:22:00.672Z,13.44
2022-10-20T15:24:29.591Z,13.32
2022-10-20T15:26:58.733Z,13.37
2022-10-20T15:29:27.192Z,13.43
2022-10-20T15:31:55.260Z,13.19
2022-10-20T15:34:25.520Z,13.32
2022-10-20T15:36:53.227Z,13.29
2022-10-20T15:39:20.962Z,13.28
2022-10-20T15:41:51.572Z,13.10
2022-10-20T15:44:23.393Z,13.19
2022-10-20T15:46:54.033Z,13.05
2022-10-20T15:49:22.391Z,12.93
2022-10-20T15:51:51.721Z,12.97
2022-10-20T15:54:21.758Z,13.00
2022-10-20T15:56:49.825Z,12.92
2022-10-20T15:59:17.672Z,12.82
2022-10-20T16:01:45.611Z,12.81
2022-10-20T16:04:19.047Z,12.87
2022-10-20T16:06:47.164Z,12.80
2022-10-20T16:09:16.647Z,12.57
2022-10-20T16:11:44.640Z,12.71
2022-10-20T16:14:12.562Z,12.41
2022-10-20T16:16:40.823Z,12.67
2022-10-20T16:19:09.216Z,11.65
2022-10-20T16:21:37.206Z,12.57
2022-10-20T16:24:05.537Z,12.70
2022-10-20T16:26:34.785Z,12.63
2022-10-20T16:29:02.614Z,12.25
2022-10-20T16:31:30.505Z,12.42
2022-10-20T16:34:00.111Z,12.38
2022-10-20T16:36:28.083Z,12.33
2022-10-20T16:38:57.473Z,12.23
2022-10-20T16:41:25.953Z,12.26
2022-10-20T16:43:56.461Z,12.18
2022-10-20T16:46:26.720Z,12.28
2022-10-20T16:48:57.168Z,12.23
2022-10-20T16:51:25.212Z,12.29
2022-10-20T16:53:57.361Z,12.15
2022-10-20T16:56:27.389Z,12.17
2022-10-20T16:58:57.501Z,12.22
2022-10-20T17:01:25.943Z,12.27
2022-10-20T17:03:54.306Z,12.21
2022-10-20T17:06:24.696Z,12.22
2022-10-20T17:08:53.446Z,11.72
2022-10-20T17:11:23.230Z,11.94
2022-10-20T17:13:51.781Z,12.02
2022-10-20T17:16:26.130Z,12.12
2022-10-20T17:18:56.699Z,11.86
2022-10-20T17:21:24.566Z,12.20
2022-10-20T17:23:52.510Z,12.16
2022-10-20T17:26:22.848Z,12.22
2022-10-20T17:28:52.070Z,12.19
2022-10-20T17:31:21.998Z,12.14
2022-10-20T17:33:49.968Z,11.87
2022-10-20T17:36:18.900Z,11.89
2022-10-20T17:38:46.791Z,12.19
2022-10-20T17:41:16.696Z,12.23
2022-10-20T17:43:44.538Z,12.10
2022-10-20T17:46:14.382Z,12.36
2022-10-20T17:48:43.720Z,12.20
2022-10-20T17:51:13.644Z,12.22
2022-10-20T17:53:45.329Z,12.23
2022-10-20T17:56:14.992Z,12.30
2022-10-20T17:58:43.839Z,12.32
2022-10-20T18:01:13.831Z,12.36
2022-10-20T18:03:45.679Z,12.34
2022-10-20T18:06:15.264Z,12.31
2022-10-20T18:08:43.737Z,12.38
2022-10-20T18:11:13.631Z,12.11
2022-10-20T18:13:41.895Z,12.18
2022-10-20T18:16:12.167Z,12.07
2022-10-20T18:18:40.391Z,12.15
2022-10-20T18:21:11.708Z,12.13
2022-10-20T18:23:41.306Z,12.14
2022-10-20T18:26:11.489Z,12.03
2022-10-20T18:28:41.972Z,12.05
2022-10-20T18:31:14.707Z,12.11
2022-10-20T18:33:42.645Z,12.10
2022-10-20T18:36:13.760Z,12.08
2022-10-20T18:38:43.173Z,12.17
2022-10-20T18:41:12.835Z,12.20
2022-10-20T18:43:40.889Z,12.16
2022-10-20T18:46:10.123Z,12.12
2022-10-20T18:48:39.561Z,12.09
2022-10-20T18:51:09.061Z,12.10
2022-10-20T18:56:11.501Z,12.13
2022-10-20T18:58:41.496Z,12.04
2022-10-20T19:01:10.985Z,12.12
2022-10-20T19:03:40.093Z,12.19
2022-10-20T19:06:10.097Z,12.13
2022-10-20T19:08:40.356Z,11.98
2022-10-20T19:11:10.370Z,12.01
2022-10-20T19:13:38.545Z,11.89
2022-10-20T19:16:09.183Z,12.16
2022-10-20T19:18:39.419Z,12.21
2022-10-20T19:21:07.981Z,12.20
2022-10-20T19:23:37.464Z,11.55
2022-10-20T19:26:09.902Z,12.10
2022-10-20T19:28:39.675Z,11.97
2022-10-20T19:31:20.918Z,12.14
2022-10-20T19:33:51.316Z,12.20
2022-10-20T19:36:19.997Z,12.25
2022-10-20T19:38:48.616Z,12.20
2022-10-20T19:41:18.018Z,12.03
2022-10-20T19:43:46.604Z,12.27
2022-10-20T19:46:15.927Z,12.18
2022-10-20T19:48:45.246Z,12.29
2022-10-20T19:51:13.810Z,12.13
2022-10-20T19:53:41.705Z,12.22
2022-10-20T19:56:10.961Z,12.19
2022-10-20T19:58:44.142Z,11.97
2022-10-20T20:01:14.811Z,12.22
2022-10-20T20:03:42.797Z,11.97
2022-10-20T20:06:16.208Z,12.17
2022-10-20T20:08:44.898Z,12.19
2022-10-20T20:11:23.795Z,11.99
2022-10-20T20:13:54.624Z,12.25
2022-10-20T20:16:22.801Z,12.27
2022-10-20T20:18:50.725Z,12.25
2022-10-20T20:21:18.738Z,12.13
2022-10-20T20:23:58.890Z,12.29
2022-10-20T20:26:28.074Z,12.22
2022-10-20T20:28:57.656Z,12.18
2022-10-20T20:31:25.942Z,12.31
2022-10-20T20:33:54.299Z,12.36
2022-10-20T20:36:22.175Z,12.23
2022-10-20T20:38:52.572Z,12.30
2022-10-20T20:41:24.499Z,12.24
2022-10-20T20:43:52.427Z,12.32
2022-10-20T20:46:23.344Z,12.16
2022-10-20T20:48:51.790Z,11.61
2022-10-20T20:51:20.474Z,12.36
2022-10-20T20:53:48.626Z,12.35
2022-10-20T20:56:20.492Z,12.26
2022-10-20T20:58:55.117Z,12.23
2022-10-20T21:01:27.405Z,12.25
2022-10-20T21:03:56.538Z,12.36
2022-10-20T21:06:33.139Z,12.01
2022-10-20T21:09:02.273Z,12.27
2022-10-20T21:11:30.284Z,12.21
2022-10-20T21:13:59.058Z,12.12
2022-10-20T21:16:30.130Z,12.19
2022-10-20T21:18:59.638Z,12.22
2022-10-20T21:21:29.180Z,12.20
2022-10-20T21:23:57.809Z,12.25
2022-10-20T21:26:26.452Z,12.15
2022-10-20T21:28:54.743Z,12.34
2022-10-20T21:31:25.132Z,12.34
2022-10-20T21:33:57.109Z,12.08
2022-10-20T21:36:26.644Z,12.43
2022-10-20T21:38:55.065Z,12.43
2022-10-20T21:41:25.473Z,12.43
2022-10-20T21:43:55.370Z,12.32
2022-10-20T21:46:24.545Z,12.31
2022-10-20T21:48:55.615Z,12.46
2022-10-20T21:51:25.894Z,12.61
2022-10-20T21:53:55.820Z,12.59
2022-10-20T21:56:23.964Z,11.98
2022-10-20T21:58:52.040Z,12.45
2022-10-20T22:01:22.595Z,12.48
2022-10-20T22:03:51.741Z,12.49
2022-10-20T22:06:22.935Z,12.57
2022-10-20T22:08:53.751Z,12.66
2022-10-20T22:11:24.396Z,12.43
2022-10-20T22:13:53.120Z,12.25
2022-10-20T22:16:24.995Z,12.50
2022-10-20T22:18:56.350Z,12.70
2022-10-20T22:21:26.119Z,12.75
2022-10-20T22:23:55.357Z,12.72
2022-10-20T22:26:25.690Z,12.71
2022-10-20T22:28:53.572Z,12.84
2022-10-20T22:31:21.469Z,12.70
2022-10-20T22:33:50.650Z,12.79
2022-10-20T22:36:19.156Z,12.85
2022-10-20T22:38:48.399Z,12.92
2022-10-20T22:41:16.674Z,12.94
2022-10-20T22:43:44.523Z,12.93
2022-10-20T22:46:12.541Z,12.96
2022-10-20T22:48:40.474Z,12.97
2022-10-20T22:51:10.191Z,13.01
2022-10-20T22:53:39.171Z,13.03
2022-10-20T22:56:11.847Z,13.02
2022-10-20T22:58:40.173Z,13.02
2022-10-20T23:01:10.595Z,13.11
2022-10-20T23:03:38.550Z,12.84
2022-10-20T23:06:08.158Z,13.03
2022-10-20T23:08:39.478Z,13.13
2022-10-20T23:11:08.750Z,13.06
2022-10-20T23:13:36.562Z,13.05
2022-10-20T23:16:04.453Z,13.05
2022-10-20T23:18:32.578Z,13.00
2022-10-20T23:21:00.435Z,13.00
2022-10-20T23:23:28.590Z,12.93
2022-10-20T23:25:58.466Z,12.85
2022-10-20T23:28:30.151Z,12.44
2022-10-20T23:31:07.130Z,12.83
2022-10-20T23:46:07.138Z,12.82
2022-10-20T23:48:35.142Z,12.84
2022-10-20T23:51:02.997Z,12.96
2022-10-20T23:53:31.073Z,12.99
2022-10-20T23:55:58.895Z,12.93
2022-10-20T23:58:27.700Z,12.93
